Aqualoyalty — A8ZC6 — position and weather

sailwx.info

Track history (hours):
 
Tides and Currents Weather Stations Pressure Air Temp Water Temp Dewpoint Dewpoint Depression Visibility Wind Speed Wind Dir Waves Ship Positions

Aqualoyalty

Last reported at 2014-Oct-18 02:13 UTC. Time now 2014-Nov-27 21:58 UTC.
Position N 33°39' W 121°05'.
Warning: this ship's position is 40 days out of date.

Length 249 m; draft 8.5 m.

Type: Ship. MMSI: 636015177.

Date/timePositionNaut miles runAvg speedWind from/ knotsBaromVisibWave heightAir tempDewpointWater temp
2014-Oct-18 02:13N 33°39' W 121°05'1014.5
2014-Oct-18 01:33N 33°46' W 121°12'2914.2
2014-Oct-17 23:32N 34°09' W 121°33'1414.2
2014-Oct-17 22:34N 34°21' W 121°42'1414.3
2014-Oct-17 21:34N 34°33' W 121°51'1614.3
2014-Oct-17 20:24N 34°48' W 122°00'1214.5
2014-Oct-17 19:34N 34°58' W 122°08'1515.0
2014-Oct-17 18:33N 35°12' W 122°17'1414.7
2014-Oct-17 17:34N 35°24' W 122°26'1414.2
2014-Oct-17 16:34N 35°37' W 122°34'1413.8
2014-Oct-17 15:33N 35°49' W 122°43'1413.7
2014-Oct-17 14:33N 36°01' W 122°51'1413.7
2014-Oct-17 13:33N 36°12' W 122°59'1513.9
2014-Oct-17 12:30N 36°25' W 123°08'1313.7
2014-Oct-17 11:34N 36°38' W 123°08'1413.8
2014-Oct-17 10:33N 36°52' W 123°08'1413.5
2014-Oct-17 09:33N 37°06' W 123°08'1211.9
2014-Oct-17 08:33N 37°17' W 123°08'1212.0
2014-Oct-17 07:33N 37°29' W 123°09'1312.9
2014-Oct-17 06:33N 37°38' W 122°57'1313.2
2014-Oct-17 05:33N 37°44' W 122°42'1312.9
2014-Oct-17 04:33N 37°50' W 122°27'1111.2
2014-Oct-17 03:33N 38°01' W 122°24'1110.6
2014-Oct-17 02:31N 38°02' W 122°10'2 0.0
2014-Oct-15 13:25N 38°02' W 122°08'2 2.5
2014-Oct-15 12:27N 38°03' W 122°11'7 8.0
2014-Oct-15 11:34N 38°03' W 122°20'9 9.2
2014-Oct-15 10:34N 37°56' W 122°27'7 6.7
2014-Oct-15 09:34N 37°49' W 122°28'1111.3
2014-Oct-15 08:34N 37°44' W 122°41'10 9.6
2014-Oct-15 07:34N 37°39' W 122°51'10 9.8
2014-Oct-15 06:34N 37°33' W 123°01'1110.5
2014-Oct-15 05:33N 37°28' W 123°13'1010.2
2014-Oct-15 04:34N 37°23' W 123°24'7 7.2
2014-Oct-15 03:33N 37°20' W 123°32'20 6.4
2014-Oct-15 00:27N 37°05' W 123°16'9 9.6
2014-Oct-14 23:32N 36°58' W 123°09'10 9.7
2014-Oct-14 22:28N 36°48' W 123°08'1010.3
2014-Oct-14 21:32N 36°38' W 123°08'1010.3
2014-Oct-14 20:33N 36°28' W 123°07'2010.0
2014-Oct-14 18:33N 36°10' W 122°57'10 9.8
2014-Oct-14 17:31N 36°01' W 122°51'10 9.9
2014-Oct-14 16:33N 35°53' W 122°45'1211.7
2014-Oct-14 15:33N 35°43' W 122°38'1111.1
2014-Oct-14 14:33N 35°33' W 122°32'1010.0
2014-Oct-14 13:33N 35°24' W 122°26'9 9.4
2014-Oct-14 12:33N 35°16' W 122°20'9 9.3
2014-Oct-14 11:33N 35°08' W 122°15'10 9.8
2014-Oct-14 10:33N 34°59' W 122°09'10 9.9
2014-Oct-14 09:33N 34°51' W 122°03'10 9.8
2014-Oct-14 08:33N 34°42' W 121°57'9 9.5
2014-Oct-14 07:33N 34°34' W 121°51'9 9.4
2014-Oct-14 06:33N 34°26' W 121°46'9 9.3
2014-Oct-14 05:33N 34°18' W 121°40'9 9.2
2014-Oct-14 04:33N 34°12' W 121°31'1010.4
2014-Oct-14 03:33N 34°05' W 121°21'9 9.0
2014-Oct-14 02:33N 33°60' W 121°13'10 9.3
2014-Oct-14 01:32N 33°54' W 121°04'9 9.2
2014-Oct-14 00:34N 33°48' W 120°55'8 7.6
2014-Oct-13 23:33N 33°44' W 120°48'9 9.4
2014-Oct-13 22:33N 33°43' W 120°37'10 9.8
2014-Oct-13 21:32N 33°43' W 120°25'13 9.7
2014-Oct-13 20:10N 33°43' W 120°09'810.0
2014-Oct-13 19:20N 33°43' W 119°59'810.2
2014-Oct-13 18:33N 33°43' W 119°49'1010.4
2014-Oct-13 17:33N 33°43' W 119°37'1110.5
2014-Oct-13 16:33N 33°43' W 119°24'1110.6
2014-Oct-13 15:29N 33°43' W 119°10'1011.0
2014-Oct-13 14:34N 33°42' W 118°58'1110.8
2014-Oct-13 13:34N 33°40' W 118°45'1110.8
2014-Oct-13 12:34N 33°39' W 118°32'1111.2
2014-Oct-13 11:34N 33°35' W 118°20'8 8.5
2014-Oct-13 10:34N 33°40' W 118°12'5 5.1
2014-Oct-13 09:34N 33°45' W 118°13'0 0.4
2014-Oct-13 08:31N 33°45' W 118°13'0 0.0
2014-Oct-13 07:31N 33°45' W 118°13'0 0.0
2014-Oct-13 06:31N 33°45' W 118°13'0 0.0
2014-Oct-13 05:31N 33°45' W 118°13'0 0.0
2014-Oct-13 04:31N 33°45' W 118°13'0 0.0
2014-Oct-13 03:31N 33°45' W 118°13'0 0.0
2014-Oct-13 02:31N 33°45' W 118°13'0 0.0
2014-Oct-13 01:31N 33°45' W 118°13'0 0.0
2014-Oct-13 00:31N 33°45' W 118°13'0 0.0
2014-Oct-12 23:34N 33°45' W 118°13'0 0.0
2014-Oct-12 22:31N 33°45' W 118°13'0 0.0
2014-Oct-12 21:31N 33°45' W 118°13'0 0.0
2014-Oct-12 20:34N 33°45' W 118°13'0 0.0
2014-Oct-12 19:31N 33°45' W 118°13'0 0.0
2014-Oct-12 18:31N 33°45' W 118°13'0 0.0
2014-Oct-12 17:31N 33°45' W 118°13'0 0.0
2014-Oct-12 16:31N 33°45' W 118°13'0 0.0
2014-Oct-12 15:31N 33°45' W 118°13'0 0.0
2014-Oct-12 14:31N 33°45' W 118°13'0 0.0
2014-Oct-12 13:31N 33°45' W 118°13'0 0.0
2014-Oct-12 12:34N 33°45' W 118°13'0 0.0
2014-Oct-12 11:28N 33°45' W 118°13'0 0.0
2014-Oct-12 10:28N 33°45' W 118°13'0 0.0
2014-Oct-12 09:34N 33°45' W 118°13'0 0.0
2014-Oct-12 08:34N 33°45' W 118°13'3 2.6
2014-Oct-12 07:33N 33°44' W 118°11'1 0.8
2014-Oct-12 06:31N 33°44' W 118°10'0 0.0
2014-Oct-12 05:31N 33°44' W 118°10'0 0.0
2014-Oct-12 04:31N 33°44' W 118°10'0 0.0
2014-Oct-12 03:31N 33°44' W 118°10'0 0.0
2014-Oct-12 02:31N 33°44' W 118°10'0 0.0
2014-Oct-12 01:31N 33°44' W 118°10'0 0.0
2014-Oct-12 00:31N 33°44' W 118°10'0 0.0
2014-Oct-11 23:31N 33°44' W 118°10'0 0.0
2014-Oct-11 22:31N 33°44' W 118°10'0 0.0
2014-Oct-11 21:31N 33°44' W 118°10'0 0.1
2014-Oct-11 20:31N 33°44' W 118°10'0 0.1
2014-Oct-11 19:31N 33°44' W 118°10'0 0.0
2014-Oct-11 18:31N 33°44' W 118°10'0 0.0
2014-Oct-11 17:31N 33°44' W 118°10'0 0.0
2014-Oct-11 16:31N 33°44' W 118°10'0 0.0
2014-Oct-11 15:31N 33°44' W 118°10'0 0.0
2014-Oct-11 14:31N 33°44' W 118°10'0 0.0
2014-Oct-11 13:28N 33°44' W 118°10'0 0.0
2014-Oct-11 12:31N 33°44' W 118°10'0 0.0
2014-Oct-11 11:28N 33°44' W 118°10'0 0.0
2014-Oct-11 10:31N 33°44' W 118°10'0 0.0
2014-Oct-11 09:10N 33°44' W 118°10'0 0.0
2014-Oct-11 08:28N 33°44' W 118°10'0 0.0
2014-Oct-11 07:31N 33°44' W 118°10'0 0.0
2014-Oct-11 06:31N 33°44' W 118°10'0 0.1
2014-Oct-11 05:22N 33°44' W 118°10'0 0.1
2014-Oct-11 04:31N 33°44' W 118°10'0 0.1
2014-Oct-11 03:31N 33°44' W 118°10'0 0.1
2014-Oct-11 02:31N 33°44' W 118°10'0 0.0
2014-Oct-11 01:31N 33°44' W 118°10'0 0.0
2014-Oct-11 00:31N 33°44' W 118°10'0 0.0
2014-Oct-10 23:31N 33°44' W 118°10'0 0.0
2014-Oct-10 22:31N 33°44' W 118°10'0 0.0
2014-Oct-10 21:31N 33°44' W 118°10'0 0.2
2014-Oct-10 20:31N 33°44' W 118°10'0 0.1
2014-Oct-10 19:31N 33°44' W 118°10'0 0.0
2014-Oct-10 18:28N 33°44' W 118°10'0 0.0
2014-Oct-10 17:31N 33°44' W 118°10'0 0.0
2014-Oct-10 16:31N 33°44' W 118°10'0 0.0
2014-Oct-10 15:31N 33°44' W 118°10'0 0.0
2014-Oct-10 14:22N 33°44' W 118°10'0 0.0
2014-Oct-10 13:31N 33°44' W 118°10'0 0.0
2014-Oct-10 12:31N 33°44' W 118°10'0 0.0
2014-Oct-10 11:28N 33°44' W 118°10'0 0.1
2014-Oct-10 10:31N 33°44' W 118°10'0 0.0
2014-Oct-10 09:25N 33°44' W 118°10'0 0.0
2014-Oct-10 08:31N 33°44' W 118°10'0 0.0
2014-Oct-10 07:28N 33°44' W 118°10'0 0.0
2014-Oct-10 06:31N 33°44' W 118°10'0 0.1
2014-Oct-10 05:31N 33°44' W 118°10'0 0.0
2014-Oct-10 04:31N 33°44' W 118°10'0 0.1
2014-Oct-10 03:28N 33°44' W 118°10'0 0.0
2014-Oct-10 02:31N 33°44' W 118°10'0 0.0
2014-Oct-10 01:31N 33°44' W 118°10'0 0.0
2014-Oct-10 00:31N 33°44' W 118°10'0 0.0
2014-Oct-09 23:25N 33°44' W 118°10'0 0.0
2014-Oct-09 22:31N 33°44' W 118°10'0 0.0
2014-Oct-09 21:25N 33°44' W 118°10'0 0.0
2014-Oct-09 20:13N 33°44' W 118°10'0 0.0
2014-Oct-09 19:31N 33°44' W 118°10'0 0.0
2014-Oct-09 18:31N 33°44' W 118°10'0 0.1
2014-Oct-09 17:31N 33°44' W 118°10'1 1.0
2014-Oct-09 16:34N 33°43' W 118°11'4 4.3
2014-Oct-09 15:34N 33°39' W 118°10'7 6.6
2014-Oct-09 14:34N 33°32' W 118°09'10 9.9
2014-Oct-09 13:33N 33°23' W 118°04'1010.1
2014-Oct-09 12:33N 33°14' W 118°00'1010.1
2014-Oct-09 11:33N 33°04' W 117°55'2 1.6
2014-Oct-09 10:33N 33°03' W 117°55'1 0.7
2014-Oct-09 09:33N 33°02' W 117°54'2 2.0
2014-Oct-09 08:34N 33°00' W 117°53'1 0.9
2014-Oct-09 07:33N 32°60' W 117°53'0 0.3
2014-Oct-09 06:33N 32°60' W 117°53'0 0.3
2014-Oct-09 05:33N 32°59' W 117°52'2 2.2
2014-Oct-09 04:33N 33°02' W 117°52'1 1.5
2014-Oct-09 03:33N 33°03' W 117°53'1 0.7
2014-Oct-09 02:33N 33°02' W 117°52'1 0.6
2014-Oct-09 01:33N 33°02' W 117°52'1 0.7
2014-Oct-09 00:33N 33°01' W 117°52'1 0.6
2014-Oct-08 23:33N 33°01' W 117°51'0 0.5
2014-Oct-08 22:33N 33°00' W 117°51'1 0.6
2014-Oct-08 21:33N 32°60' W 117°51'0 0.4
2014-Oct-08 20:33N 32°59' W 117°51'0 0.4
2014-Oct-08 19:33N 32°59' W 117°50'1 0.6
2014-Oct-08 18:33N 32°58' W 117°50'1 0.7
2014-Oct-08 17:33N 32°58' W 117°50'1 0.8
2014-Oct-08 16:30N 32°57' W 117°50'1 0.9
2014-Oct-08 15:33N 32°56' W 117°50'1 1.0
2014-Oct-08 14:33N 32°55' W 117°49'1 1.0
2014-Oct-08 13:33N 32°54' W 117°49'1 0.9
2014-Oct-08 12:33N 32°53' W 117°49'1 0.9
2014-Oct-08 11:33N 32°52' W 117°49'1 0.7
2014-Oct-08 10:33N 32°52' W 117°49'3 2.8
2014-Oct-08 09:33N 32°54' W 117°49'5 5.0
2014-Oct-08 08:32N 32°60' W 117°49'1 0.9
2014-Oct-08 07:32N 32°59' W 117°49'1 0.9
2014-Oct-08 06:32N 32°58' W 117°49'1 0.9
2014-Oct-08 05:32N 32°57' W 117°50'1 1.0
2014-Oct-08 04:32N 32°56' W 117°50'1 1.0
2014-Oct-08 03:32N 32°55' W 117°50'1 0.9
2014-Oct-08 02:32N 32°54' W 117°49'  
Track history (hours):
 
Tides and Currents Weather Stations Pressure Air Temp Water Temp Dewpoint Dewpoint Depression Visibility Wind Speed Wind Dir Waves Ship Positions

Aqualoyalty

Last reported at 2014-Oct-18 02:13 UTC. Time now 2014-Nov-27 21:58 UTC.
Position N 33°39' W 121°05'.
Warning: this ship's position is 40 days out of date.

Length 249 m; draft 8.5 m.

Type: Ship. MMSI: 636015177.

Date/timePositionNaut miles runAvg speedWind from/ knotsBaromVisibWave heightAir tempDewpointWater temp
2014-Oct-18 02:13N 33°39' W 121°05'1014.5
2014-Oct-18 01:33N 33°46' W 121°12'2914.2
2014-Oct-17 23:32N 34°09' W 121°33'1414.2
2014-Oct-17 22:34N 34°21' W 121°42'1414.3
2014-Oct-17 21:34N 34°33' W 121°51'1614.3
2014-Oct-17 20:24N 34°48' W 122°00'1214.5
2014-Oct-17 19:34N 34°58' W 122°08'1515.0
2014-Oct-17 18:33N 35°12' W 122°17'1414.7
2014-Oct-17 17:34N 35°24' W 122°26'1414.2
2014-Oct-17 16:34N 35°37' W 122°34'1413.8
2014-Oct-17 15:33N 35°49' W 122°43'1413.7
2014-Oct-17 14:33N 36°01' W 122°51'1413.7
2014-Oct-17 13:33N 36°12' W 122°59'1513.9
2014-Oct-17 12:30N 36°25' W 123°08'1313.7
2014-Oct-17 11:34N 36°38' W 123°08'1413.8
2014-Oct-17 10:33N 36°52' W 123°08'1413.5
2014-Oct-17 09:33N 37°06' W 123°08'1211.9
2014-Oct-17 08:33N 37°17' W 123°08'1212.0
2014-Oct-17 07:33N 37°29' W 123°09'1312.9
2014-Oct-17 06:33N 37°38' W 122°57'1313.2
2014-Oct-17 05:33N 37°44' W 122°42'1312.9
2014-Oct-17 04:33N 37°50' W 122°27'1111.2
2014-Oct-17 03:33N 38°01' W 122°24'1110.6
2014-Oct-17 02:31N 38°02' W 122°10'2 0.0
2014-Oct-15 13:25N 38°02' W 122°08'2 2.5
2014-Oct-15 12:27N 38°03' W 122°11'7 8.0
2014-Oct-15 11:34N 38°03' W 122°20'9 9.2
2014-Oct-15 10:34N 37°56' W 122°27'7 6.7
2014-Oct-15 09:34N 37°49' W 122°28'1111.3
2014-Oct-15 08:34N 37°44' W 122°41'10 9.6
2014-Oct-15 07:34N 37°39' W 122°51'10 9.8
2014-Oct-15 06:34N 37°33' W 123°01'1110.5
2014-Oct-15 05:33N 37°28' W 123°13'1010.2
2014-Oct-15 04:34N 37°23' W 123°24'7 7.2
2014-Oct-15 03:33N 37°20' W 123°32'20 6.4
2014-Oct-15 00:27N 37°05' W 123°16'9 9.6
2014-Oct-14 23:32N 36°58' W 123°09'10 9.7
2014-Oct-14 22:28N 36°48' W 123°08'1010.3
2014-Oct-14 21:32N 36°38' W 123°08'1010.3
2014-Oct-14 20:33N 36°28' W 123°07'2010.0
2014-Oct-14 18:33N 36°10' W 122°57'10 9.8
2014-Oct-14 17:31N 36°01' W 122°51'10 9.9
2014-Oct-14 16:33N 35°53' W 122°45'1211.7
2014-Oct-14 15:33N 35°43' W 122°38'1111.1
2014-Oct-14 14:33N 35°33' W 122°32'1010.0
2014-Oct-14 13:33N 35°24' W 122°26'9 9.4
2014-Oct-14 12:33N 35°16' W 122°20'9 9.3
2014-Oct-14 11:33N 35°08' W 122°15'10 9.8
2014-Oct-14 10:33N 34°59' W 122°09'10 9.9
2014-Oct-14 09:33N 34°51' W 122°03'10 9.8
2014-Oct-14 08:33N 34°42' W 121°57'9 9.5
2014-Oct-14 07:33N 34°34' W 121°51'9 9.4
2014-Oct-14 06:33N 34°26' W 121°46'9 9.3
2014-Oct-14 05:33N 34°18' W 121°40'9 9.2
2014-Oct-14 04:33N 34°12' W 121°31'1010.4
2014-Oct-14 03:33N 34°05' W 121°21'9 9.0
2014-Oct-14 02:33N 33°60' W 121°13'10 9.3
2014-Oct-14 01:32N 33°54' W 121°04'9 9.2
2014-Oct-14 00:34N 33°48' W 120°55'8 7.6
2014-Oct-13 23:33N 33°44' W 120°48'9 9.4
2014-Oct-13 22:33N 33°43' W 120°37'10 9.8
2014-Oct-13 21:32N 33°43' W 120°25'13 9.7
2014-Oct-13 20:10N 33°43' W 120°09'810.0
2014-Oct-13 19:20N 33°43' W 119°59'810.2
2014-Oct-13 18:33N 33°43' W 119°49'1010.4
2014-Oct-13 17:33N 33°43' W 119°37'1110.5
2014-Oct-13 16:33N 33°43' W 119°24'1110.6
2014-Oct-13 15:29N 33°43' W 119°10'1011.0
2014-Oct-13 14:34N 33°42' W 118°58'1110.8
2014-Oct-13 13:34N 33°40' W 118°45'1110.8
2014-Oct-13 12:34N 33°39' W 118°32'1111.2
2014-Oct-13 11:34N 33°35' W 118°20'8 8.5
2014-Oct-13 10:34N 33°40' W 118°12'5 5.1
2014-Oct-13 09:34N 33°45' W 118°13'0 0.4
2014-Oct-13 08:31N 33°45' W 118°13'0 0.0
2014-Oct-13 07:31N 33°45' W 118°13'0 0.0
2014-Oct-13 06:31N 33°45' W 118°13'0 0.0
2014-Oct-13 05:31N 33°45' W 118°13'0 0.0
2014-Oct-13 04:31N 33°45' W 118°13'0 0.0
2014-Oct-13 03:31N 33°45' W 118°13'0 0.0
2014-Oct-13 02:31N 33°45' W 118°13'0 0.0
2014-Oct-13 01:31N 33°45' W 118°13'0 0.0
2014-Oct-13 00:31N 33°45' W 118°13'0 0.0
2014-Oct-12 23:34N 33°45' W 118°13'0 0.0
2014-Oct-12 22:31N 33°45' W 118°13'0 0.0
2014-Oct-12 21:31N 33°45' W 118°13'0 0.0
2014-Oct-12 20:34N 33°45' W 118°13'0 0.0
2014-Oct-12 19:31N 33°45' W 118°13'0 0.0
2014-Oct-12 18:31N 33°45' W 118°13'0 0.0
2014-Oct-12 17:31N 33°45' W 118°13'0 0.0
2014-Oct-12 16:31N 33°45' W 118°13'0 0.0
2014-Oct-12 15:31N 33°45' W 118°13'0 0.0
2014-Oct-12 14:31N 33°45' W 118°13'0 0.0
2014-Oct-12 13:31N 33°45' W 118°13'0 0.0
2014-Oct-12 12:34N 33°45' W 118°13'0 0.0
2014-Oct-12 11:28N 33°45' W 118°13'0 0.0
2014-Oct-12 10:28N 33°45' W 118°13'0 0.0
2014-Oct-12 09:34N 33°45' W 118°13'0 0.0
2014-Oct-12 08:34N 33°45' W 118°13'3 2.6
2014-Oct-12 07:33N 33°44' W 118°11'1 0.8
2014-Oct-12 06:31N 33°44' W 118°10'0 0.0
2014-Oct-12 05:31N 33°44' W 118°10'0 0.0
2014-Oct-12 04:31N 33°44' W 118°10'0 0.0
2014-Oct-12 03:31N 33°44' W 118°10'0 0.0
2014-Oct-12 02:31N 33°44' W 118°10'0 0.0
2014-Oct-12 01:31N 33°44' W 118°10'0 0.0
2014-Oct-12 00:31N 33°44' W 118°10'0 0.0
2014-Oct-11 23:31N 33°44' W 118°10'0 0.0
2014-Oct-11 22:31N 33°44' W 118°10'0 0.0
2014-Oct-11 21:31N 33°44' W 118°10'0 0.1
2014-Oct-11 20:31N 33°44' W 118°10'0 0.1
2014-Oct-11 19:31N 33°44' W 118°10'0 0.0
2014-Oct-11 18:31N 33°44' W 118°10'0 0.0
2014-Oct-11 17:31N 33°44' W 118°10'0 0.0
2014-Oct-11 16:31N 33°44' W 118°10'0 0.0
2014-Oct-11 15:31N 33°44' W 118°10'0 0.0
2014-Oct-11 14:31N 33°44' W 118°10'0 0.0
2014-Oct-11 13:28N 33°44' W 118°10'0 0.0
2014-Oct-11 12:31N 33°44' W 118°10'0 0.0
2014-Oct-11 11:28N 33°44' W 118°10'0 0.0
2014-Oct-11 10:31N 33°44' W 118°10'0 0.0
2014-Oct-11 09:10N 33°44' W 118°10'0 0.0
2014-Oct-11 08:28N 33°44' W 118°10'0 0.0
2014-Oct-11 07:31N 33°44' W 118°10'0 0.0
2014-Oct-11 06:31N 33°44' W 118°10'0 0.1
2014-Oct-11 05:22N 33°44' W 118°10'0 0.1
2014-Oct-11 04:31N 33°44' W 118°10'0 0.1
2014-Oct-11 03:31N 33°44' W 118°10'0 0.1
2014-Oct-11 02:31N 33°44' W 118°10'0 0.0
2014-Oct-11 01:31N 33°44' W 118°10'0 0.0
2014-Oct-11 00:31N 33°44' W 118°10'0 0.0
2014-Oct-10 23:31N 33°44' W 118°10'0 0.0
2014-Oct-10 22:31N 33°44' W 118°10'0 0.0
2014-Oct-10 21:31N 33°44' W 118°10'0 0.2
2014-Oct-10 20:31N 33°44' W 118°10'0 0.1
2014-Oct-10 19:31N 33°44' W 118°10'0 0.0
2014-Oct-10 18:28N 33°44' W 118°10'0 0.0
2014-Oct-10 17:31N 33°44' W 118°10'0 0.0
2014-Oct-10 16:31N 33°44' W 118°10'0 0.0
2014-Oct-10 15:31N 33°44' W 118°10'0 0.0
2014-Oct-10 14:22N 33°44' W 118°10'0 0.0
2014-Oct-10 13:31N 33°44' W 118°10'0 0.0
2014-Oct-10 12:31N 33°44' W 118°10'0 0.0
2014-Oct-10 11:28N 33°44' W 118°10'0 0.1
2014-Oct-10 10:31N 33°44' W 118°10'0 0.0
2014-Oct-10 09:25N 33°44' W 118°10'0 0.0
2014-Oct-10 08:31N 33°44' W 118°10'0 0.0
2014-Oct-10 07:28N 33°44' W 118°10'0 0.0
2014-Oct-10 06:31N 33°44' W 118°10'0 0.1
2014-Oct-10 05:31N 33°44' W 118°10'0 0.0
2014-Oct-10 04:31N 33°44' W 118°10'0 0.1
2014-Oct-10 03:28N 33°44' W 118°10'0 0.0
2014-Oct-10 02:31N 33°44' W 118°10'0 0.0
2014-Oct-10 01:31N 33°44' W 118°10'0 0.0
2014-Oct-10 00:31N 33°44' W 118°10'0 0.0
2014-Oct-09 23:25N 33°44' W 118°10'0 0.0
2014-Oct-09 22:31N 33°44' W 118°10'0 0.0
2014-Oct-09 21:25N 33°44' W 118°10'0 0.0
2014-Oct-09 20:13N 33°44' W 118°10'0 0.0
2014-Oct-09 19:31N 33°44' W 118°10'0 0.0
2014-Oct-09 18:31N 33°44' W 118°10'0 0.1
2014-Oct-09 17:31N 33°44' W 118°10'1 1.0
2014-Oct-09 16:34N 33°43' W 118°11'4 4.3
2014-Oct-09 15:34N 33°39' W 118°10'7 6.6
2014-Oct-09 14:34N 33°32' W 118°09'10 9.9
2014-Oct-09 13:33N 33°23' W 118°04'1010.1
2014-Oct-09 12:33N 33°14' W 118°00'1010.1
2014-Oct-09 11:33N 33°04' W 117°55'2 1.6
2014-Oct-09 10:33N 33°03' W 117°55'1 0.7
2014-Oct-09 09:33N 33°02' W 117°54'2 2.0
2014-Oct-09 08:34N 33°00' W 117°53'1 0.9
2014-Oct-09 07:33N 32°60' W 117°53'0 0.3
2014-Oct-09 06:33N 32°60' W 117°53'0 0.3
2014-Oct-09 05:33N 32°59' W 117°52'2 2.2
2014-Oct-09 04:33N 33°02' W 117°52'1 1.5
2014-Oct-09 03:33N 33°03' W 117°53'1 0.7
2014-Oct-09 02:33N 33°02' W 117°52'1 0.6
2014-Oct-09 01:33N 33°02' W 117°52'1 0.7
2014-Oct-09 00:33N 33°01' W 117°52'1 0.6
2014-Oct-08 23:33N 33°01' W 117°51'0 0.5
2014-Oct-08 22:33N 33°00' W 117°51'1 0.6
2014-Oct-08 21:33N 32°60' W 117°51'0 0.4
2014-Oct-08 20:33N 32°59' W 117°51'0 0.4
2014-Oct-08 19:33N 32°59' W 117°50'1 0.6
2014-Oct-08 18:33N 32°58' W 117°50'1 0.7
2014-Oct-08 17:33N 32°58' W 117°50'1 0.8
2014-Oct-08 16:30N 32°57' W 117°50'1 0.9
2014-Oct-08 15:33N 32°56' W 117°50'1 1.0
2014-Oct-08 14:33N 32°55' W 117°49'1 1.0
2014-Oct-08 13:33N 32°54' W 117°49'1 0.9
2014-Oct-08 12:33N 32°53' W 117°49'1 0.9
2014-Oct-08 11:33N 32°52' W 117°49'1 0.7
2014-Oct-08 10:33N 32°52' W 117°49'3 2.8
2014-Oct-08 09:33N 32°54' W 117°49'5 5.0
2014-Oct-08 08:32N 32°60' W 117°49'1 0.9
2014-Oct-08 07:32N 32°59' W 117°49'1 0.9
2014-Oct-08 06:32N 32°58' W 117°49'1 0.9
2014-Oct-08 05:32N 32°57' W 117°50'1 1.0
2014-Oct-08 04:32N 32°56' W 117°50'1 1.0
2014-Oct-08 03:32N 32°55' W 117°50'1 0.9
2014-Oct-08 02:32N 32°54' W 117°49'  

Dump ship's entire track history